Terminal Aerodrome Forecast
Issued by NWS Charleston, WV

Current Version | Previous Version | Graphics & Text | Print | Product List | Glossary On
Versions: 1 2 3 4 5 6 7 8 9 10 11 12 13 14 15 16 17 18 19 20 21 22 23 24 25 26 27 28 29 30 31
120
FTUS41 KRLX 290751 AAA
TAFBKW
TAF AMD
KBKW 290751Z 2908/3006 00000KT 5SM -SHRA BR BKN015 OVC040
      TEMPO 2908/2912 1SM SHRA BR BKN004 OVC008
     FM291200 30004KT 5SM BR BKN008
     FM291400 30004KT P6SM BKN012
     FM291800 30006KT P6SM BKN035
     FM300100 00000KT P6SM BKN050=

USA.gov is the U.S. government's official web portal to all federal, state and local government web resources and services.